Time;durP1;ratioP1;P1;durP2;ratioP2;P2;SDS_P1;SDS_P2;PMS_P1;PMS_P2;Temp;Humidity;BMP_temperature;BMP_pressure;BME280_temperature;BME280_humidity;BME280_pressure;Samples;Min_cycle;Max_cycle;Signal;HPM_P1;HPM_P2
2023/08/10 00:00:15;;;;;;;231.85;14.82;;;;;12.30;96651.00;;;;8310490;28;21105;-75
2023/08/10 00:04:20;;;;;;;60.50;7.93;;;;;12.40;96650.00;;;;8293766;28;20256;-76
2023/08/10 00:08:23;;;;;;;163.35;12.25;;;;;12.60;96656.00;;;;8314152;28;20206;-75
2023/08/10 00:12:31;;;;;;;21.13;8.43;;;;;12.70;96656.00;;;;8312424;28;20583;-74
2023/08/10 00:16:38;;;;;;;19.80;7.90;;;;;12.70;96647.00;;;;8313574;28;20236;-75
2023/08/10 00:20:43;;;;;;;18.15;7.30;;;;;12.80;96649.00;;;;8293096;28;20243;-75
2023/08/10 00:24:47;;;;;;;17.15;7.28;;;;;12.80;96651.00;;;;8311736;28;20323;-75
2023/08/10 00:28:52;;;;;;;16.48;7.43;;;;;12.70;96637.00;;;;8312934;28;20244;-74
2023/08/10 00:33:14;;;;;;;15.45;6.95;;;;;12.70;96642.00;;;;8307400;28;20240;-75
2023/08/10 00:37:36;;;;;;;18.88;7.20;;;;;12.60;96636.00;;;;8316675;28;20250;-75
2023/08/10 00:41:39;;;;;;;12.60;6.25;;;;;12.60;96647.00;;;;8292968;28;20283;-75
2023/08/10 00:45:42;;;;;;;18.33;7.30;;;;;12.50;96643.00;;;;8309680;28;20259;-75
2023/08/10 00:49:49;;;;;;;15.25;7.00;;;;;12.50;96650.00;;;;8318414;28;20872;-75
2023/08/10 00:53:54;;;;;;;16.88;7.32;;;;;12.40;96653.00;;;;8316524;28;20207;-75
2023/08/10 00:57:58;;;;;;;16.55;7.25;;;;;12.40;96649.00;;;;8317581;28;20215;-75
2023/08/10 01:02:05;;;;;;;14.13;6.75;;;;;12.40;96662.00;;;;8315498;28;20320;-74
2023/08/10 01:06:17;;;;;;;15.73;6.72;;;;;12.30;96662.00;;;;8315133;28;20201;-75
2023/08/10 01:10:31;;;;;;;15.95;7.07;;;;;12.40;96653.00;;;;8318445;28;20788;-75
2023/08/10 01:14:43;;;;;;;19.30;7.93;;;;;12.40;96676.00;;;;8315379;28;20201;-75
2023/08/10 01:18:51;;;;;;;13.30;7.35;;;;;12.40;96666.00;;;;8317217;28;20621;-75
2023/08/10 01:23:02;;;;;;;12.80;6.70;;;;;12.60;96682.00;;;;8315303;28;20733;-75
2023/08/10 01:27:09;;;;;;;15.10;6.35;;;;;12.60;96683.00;;;;8317101;28;20209;-75
2023/08/10 01:31:13;;;;;;;10.13;6.03;;;;;12.70;96680.00;;;;8309153;28;20200;-75
2023/08/10 01:35:20;;;;;;;15.23;6.13;;;;;12.70;96680.00;;;;8315665;28;20189;-75
2023/08/10 01:39:27;;;;;;;9.13;5.85;;;;;12.60;96676.00;;;;8316619;28;20198;-75
2023/08/10 01:43:32;;;;;;;12.00;6.55;;;;;12.50;96676.00;;;;8299655;28;20316;-74
2023/08/10 01:47:40;;;;;;;10.48;6.15;;;;;12.50;96684.00;;;;8314189;28;20280;-74
2023/08/10 01:51:45;;;;;;;13.15;5.80;;;;;12.40;96676.00;;;;8310075;28;20198;-75
2023/08/10 01:55:51;;;;;;;11.80;6.20;;;;;12.20;96685.00;;;;8313683;28;20319;-74
2023/08/10 01:59:56;;;;;;;13.95;6.55;;;;;12.00;96688.00;;;;8297744;28;20578;-75
2023/08/10 02:03:59;;;;;;;14.93;6.07;;;;;11.90;96694.00;;;;8318847;28;20994;-74
2023/08/10 02:08:03;;;;;;;20.05;5.88;;;;;11.70;96692.00;;;;8312963;28;20197;-75
2023/08/10 02:12:07;;;;;;;11.77;5.47;;;;;11.60;96692.00;;;;8317658;28;20293;-75
2023/08/10 02:16:14;;;;;;;10.15;5.05;;;;;11.40;96692.00;;;;8316533;28;20231;-74
2023/08/10 02:20:18;;;;;;;10.35;4.70;;;;;11.30;96686.00;;;;8311671;28;20258;-75
2023/08/10 02:24:22;;;;;;;402.27;17.65;;;;;11.10;96692.00;;;;8318185;28;20235;-74
2023/08/10 02:28:28;;;;;;;280.40;13.48;;;;;11.00;96689.00;;;;8313364;28;20204;-75
2023/08/10 02:32:38;;;;;;;64.45;6.05;;;;;10.80;96696.00;;;;8306678;28;20267;-74
2023/08/10 02:36:41;;;;;;;239.30;10.45;;;;;10.70;96696.00;;;;8302410;28;20200;-74
2023/08/10 02:40:45;;;;;;;147.18;8.30;;;;;10.50;96694.00;;;;8316393;28;20205;-74
2023/08/10 02:44:50;;;;;;;126.43;8.70;;;;;10.40;96698.00;;;;8314008;28;20228;-74
2023/08/10 02:48:56;;;;;;;185.38;10.15;;;;;10.30;96696.00;;;;8307798;28;20915;-74
2023/08/10 02:53:00;;;;;;;132.75;9.10;;;;;10.30;96698.00;;;;8318922;28;20211;-74
2023/08/10 02:57:03;;;;;;;60.55;5.80;;;;;10.20;96697.00;;;;8313597;28;20194;-74
2023/08/10 03:01:07;;;;;;;81.78;7.68;;;;;10.10;96698.00;;;;8358513;22;20236;-74
2023/08/10 03:05:19;;;;;;;219.18;12.48;;;;;10.10;96699.00;;;;8375985;22;20872;-74
2023/08/10 03:09:22;;;;;;;227.77;12.30;;;;;10.00;96706.00;;;;8340743;28;20197;-74
2023/08/10 03:13:27;;;;;;;184.07;12.20;;;;;9.90;96704.00;;;;8347340;28;20822;-73
2023/08/10 03:17:32;;;;;;;171.57;10.88;;;;;9.90;96701.00;;;;8349853;28;20228;-73
2023/08/10 03:21:41;;;;;;;243.25;13.52;;;;;9.90;96705.00;;;;8347194;28;20656;-74
2023/08/10 03:25:44;;;;;;;54.75;6.93;;;;;9.90;96701.00;;;;8326025;28;20253;-73
2023/08/10 03:29:47;;;;;;;120.65;9.50;;;;;9.80;96711.00;;;;8340593;28;20221;-74
2023/08/10 03:33:56;;;;;;;88.00;8.55;;;;;9.80;96713.00;;;;8330971;28;20289;-74
2023/08/10 03:38:01;;;;;;;85.10;8.82;;;;;9.80;96718.00;;;;8344443;28;20228;-73
2023/08/10 03:42:04;;;;;;;68.00;6.18;;;;;9.80;96720.00;;;;8334207;28;20248;-74
2023/08/10 03:46:08;;;;;;;82.95;6.63;;;;;9.80;96716.00;;;;8340632;28;20281;-74
2023/08/10 03:50:12;;;;;;;102.80;8.30;;;;;9.70;96714.00;;;;8344797;28;20644;-75
2023/08/10 03:54:21;;;;;;;92.90;7.07;;;;;9.70;96726.00;;;;8338006;28;20203;-75
2023/08/10 03:58:28;;;;;;;94.57;7.45;;;;;9.60;96717.00;;;;8342996;28;20943;-73
2023/08/10 04:02:32;;;;;;;72.10;5.20;;;;;9.60;96726.00;;;;8349352;28;21091;-74
2023/08/10 04:06:36;;;;;;;80.45;6.15;;;;;9.60;96727.00;;;;8318418;28;20225;-74
2023/08/10 04:10:40;;;;;;;46.95;5.70;;;;;9.60;96724.00;;;;8320674;28;20316;-75
2023/08/10 04:14:43;;;;;;;13.32;3.75;;;;;9.60;96735.00;;;;8326616;28;20243;-74
2023/08/10 04:18:49;;;;;;;23.50;4.53;;;;;9.60;96747.00;;;;8313813;28;20196;-73
2023/08/10 04:22:57;;;;;;;28.80;4.45;;;;;9.70;96744.00;;;;8325066;28;20188;-75
2023/08/10 04:27:01;;;;;;;33.75;4.63;;;;;9.70;96744.00;;;;8312720;28;20266;-72
2023/08/10 04:31:06;;;;;;;26.30;3.80;;;;;9.80;96752.00;;;;8322457;28;20285;-71
2023/08/10 04:35:11;;;;;;;81.80;5.75;;;;;9.90;96749.00;;;;8329173;28;20195;-71
2023/08/10 04:39:14;;;;;;;64.85;4.55;;;;;10.10;96753.00;;;;8326240;28;20199;-73
2023/08/10 04:43:25;;;;;;;71.10;6.07;;;;;10.10;96750.00;;;;8322214;28;20233;-73
2023/08/10 04:47:31;;;;;;;68.55;5.30;;;;;10.30;96752.00;;;;8305999;28;20314;-73
2023/08/10 04:51:35;;;;;;;72.60;5.75;;;;;10.40;96763.00;;;;8325080;28;20199;-73
2023/08/10 04:55:39;;;;;;;56.45;5.72;;;;;10.40;96769.00;;;;8325713;28;20705;-71
2023/08/10 04:59:46;;;;;;;38.58;4.93;;;;;10.50;96760.00;;;;8328958;28;20235;-74
2023/08/10 05:03:50;;;;;;;30.45;4.15;;;;;10.60;96773.00;;;;8326134;28;20256;-72
2023/08/10 05:07:55;;;;;;;23.17;4.03;;;;;10.70;96781.00;;;;8330389;28;20230;-71
2023/08/10 05:12:01;;;;;;;17.30;3.53;;;;;10.70;96786.00;;;;8321809;28;20202;-72
2023/08/10 05:16:21;;;;;;;11.48;3.42;;;;;10.90;96784.00;;;;8329860;28;20293;-71
2023/08/10 05:20:24;;;;;;;39.85;5.60;;;;;11.10;96797.00;;;;8328935;28;20208;-72
2023/08/10 05:24:27;;;;;;;5.35;3.20;;;;;11.30;96805.00;;;;8324869;28;20308;-71
2023/08/10 05:28:38;;;;;;;14.55;3.47;;;;;11.40;96810.00;;;;8322137;28;20201;-71
2023/08/10 05:32:45;;;;;;;20.77;3.38;;;;;11.40;96803.00;;;;8325244;28;20766;-72
2023/08/10 05:36:50;;;;;;;10.57;3.80;;;;;11.50;96808.00;;;;8329161;28;20209;-71
2023/08/10 05:40:56;;;;;;;4.47;3.40;;;;;11.70;96813.00;;;;8324443;28;20228;-71
2023/08/10 05:45:02;;;;;;;5.65;3.60;;;;;11.90;96819.00;;;;8318204;28;20324;-71
2023/08/10 05:49:07;;;;;;;4.07;3.33;;;;;12.00;96812.00;;;;8319997;28;20284;-72
2023/08/10 05:53:11;;;;;;;5.10;3.75;;;;;12.20;96814.00;;;;8312540;28;20231;-71
2023/08/10 05:57:17;;;;;;;7.07;4.25;;;;;12.40;96816.00;;;;8327240;28;20972;-72
2023/08/10 06:01:21;;;;;;;11.95;4.30;;;;;12.70;96810.00;;;;8332813;28;20207;-72
2023/08/10 06:05:32;;;;;;;6.45;4.57;;;;;12.90;96812.00;;;;8337984;28;20224;-72
2023/08/10 06:09:35;;;;;;;5.55;4.13;;;;;13.10;96820.00;;;;8336904;28;20225;-72
2023/08/10 06:13:41;;;;;;;6.43;4.35;;;;;13.30;96816.00;;;;8330734;28;20242;-72
2023/08/10 06:17:45;;;;;;;5.97;4.38;;;;;13.60;96811.00;;;;8335734;28;20203;-72
2023/08/10 06:21:51;;;;;;;5.40;4.22;;;;;13.90;96816.00;;;;8339665;28;20205;-72
2023/08/10 06:25:56;;;;;;;9.95;5.45;;;;;14.00;96812.00;;;;8350196;28;20225;-71
2023/08/10 06:30:01;;;;;;;9.10;5.15;;;;;14.20;96821.00;;;;8338711;28;20293;-72
2023/08/10 06:34:07;;;;;;;10.88;5.40;;;;;14.10;96819.00;;;;8330489;28;20239;-72
2023/08/10 06:38:12;;;;;;;11.90;5.88;;;;;14.20;96816.00;;;;8341241;28;20229;-72
2023/08/10 06:42:16;;;;;;;17.15;7.25;;;;;14.30;96823.00;;;;8321949;28;20209;-72
2023/08/10 06:46:20;;;;;;;25.48;7.05;;;;;14.40;96821.00;;;;8320732;28;20348;-72
2023/08/10 06:50:26;;;;;;;14.45;6.45;;;;;14.60;96828.00;;;;8321410;28;20891;-71
2023/08/10 06:54:31;;;;;;;26.30;7.43;;;;;14.70;96837.00;;;;8318492;28;20810;-71
2023/08/10 06:58:36;;;;;;;41.95;6.38;;;;;14.90;96838.00;;;;8323254;28;20237;-72
2023/08/10 07:02:44;;;;;;;16.95;6.55;;;;;15.00;96843.00;;;;8319650;28;20559;-71
2023/08/10 07:06:47;;;;;;;8.00;5.60;;;;;14.90;96850.00;;;;8329006;28;20225;-71
2023/08/10 07:10:51;;;;;;;13.00;6.22;;;;;14.70;96851.00;;;;8321295;28;20204;-71
2023/08/10 07:14:55;;;;;;;14.25;6.82;;;;;14.60;96863.00;;;;8341521;28;20201;-71
2023/08/10 07:19:04;;;;;;;11.48;6.50;;;;;14.80;96866.00;;;;8347039;28;20205;-71
2023/08/10 07:23:07;;;;;;;9.30;6.03;;;;;15.20;96870.00;;;;8333916;28;20288;-71
2023/08/10 07:27:12;;;;;;;8.50;5.78;;;;;15.80;96870.00;;;;8340083;28;20233;-71
2023/08/10 07:31:16;;;;;;;8.20;6.25;;;;;16.70;96881.00;;;;8323180;28;20259;-70
2023/08/10 07:35:19;;;;;;;9.38;5.93;;;;;17.20;96890.00;;;;8311988;28;20650;-70
2023/08/10 07:39:22;;;;;;;7.68;6.30;;;;;17.70;96888.00;;;;8334189;28;20203;-70
2023/08/10 07:43:27;;;;;;;10.13;5.70;;;;;18.10;96890.00;;;;8321811;28;20197;-70
2023/08/10 07:47:35;;;;;;;5.50;4.93;;;;;18.60;96886.00;;;;8316028;28;20973;-70
2023/08/10 07:51:41;;;;;;;8.18;5.38;;;;;18.60;96887.00;;;;8313483;28;20208;-70
2023/08/10 07:55:49;;;;;;;4.93;4.50;;;;;18.70;96891.00;;;;8328049;28;20299;-70
2023/08/10 07:59:54;;;;;;;5.32;4.82;;;;;19.00;96890.00;;;;8311342;28;21084;-69
2023/08/10 08:03:57;;;;;;;5.45;4.93;;;;;19.40;96901.00;;;;8316607;28;20309;-70
2023/08/10 08:08:00;;;;;;;4.32;3.97;;;;;20.00;96904.00;;;;8318292;28;20345;-70
2023/08/10 08:12:06;;;;;;;4.25;3.85;;;;;20.70;96897.00;;;;8324172;28;20208;-70
2023/08/10 08:16:11;;;;;;;3.80;3.55;;;;;21.40;96905.00;;;;8325283;28;20679;-71
2023/08/10 08:20:17;;;;;;;4.00;3.70;;;;;22.10;96913.00;;;;8328788;28;20336;-72
2023/08/10 08:24:20;;;;;;;5.45;3.50;;;;;22.20;96910.00;;;;8316634;28;20201;-71
2023/08/10 08:28:24;;;;;;;3.65;3.35;;;;;22.50;96907.00;;;;8327080;28;20224;-71
2023/08/10 08:32:31;;;;;;;3.33;3.13;;;;;22.90;96904.00;;;;8328468;28;20752;-71
2023/08/10 08:36:38;;;;;;;5.40;3.50;;;;;22.80;96907.00;;;;8327354;28;20224;-71
2023/08/10 08:40:42;;;;;;;5.13;3.50;;;;;22.90;96911.00;;;;8323095;28;20292;-71
2023/08/10 08:44:46;;;;;;;3.10;2.90;;;;;23.20;96911.00;;;;8325027;28;20203;-71
2023/08/10 08:48:52;;;;;;;3.00;2.80;;;;;23.70;96913.00;;;;8333799;28;20747;-71
2023/08/10 08:52:57;;;;;;;4.68;3.20;;;;;23.90;96912.00;;;;8316479;28;20745;-71
2023/08/10 08:57:03;;;;;;;3.15;2.95;;;;;24.30;96913.00;;;;8313600;28;20220;-71
2023/08/10 09:01:15;;;;;;;5.57;3.15;;;;;24.50;96917.00;;;;8326115;28;20325;-71
2023/08/10 09:05:22;;;;;;;2.97;2.78;;;;;24.80;96917.00;;;;8327204;28;20264;-71
2023/08/10 09:09:28;;;;;;;2.88;2.65;;;;;25.40;96919.00;;;;8322941;28;20193;-71
2023/08/10 09:13:34;;;;;;;3.40;2.65;;;;;25.60;96926.00;;;;8328113;28;20274;-71
2023/08/10 09:17:40;;;;;;;3.15;2.95;;;;;25.90;96918.00;;;;8333271;28;20224;-72
2023/08/10 09:21:47;;;;;;;2.42;2.22;;;;;26.00;96919.00;;;;8329355;28;20854;-69
2023/08/10 09:25:50;;;;;;;3.05;2.33;;;;;26.40;96922.00;;;;8324289;28;20262;-70
2023/08/10 09:29:59;;;;;;;3.47;3.17;;;;;26.50;96919.00;;;;8319368;28;20201;-71
2023/08/10 09:34:03;;;;;;;2.78;2.58;;;;;26.30;96909.00;;;;8323042;28;20209;-70
2023/08/10 09:38:08;;;;;;;2.13;2.03;;;;;26.70;96908.00;;;;8339595;28;20204;-70
2023/08/10 09:42:11;;;;;;;6.93;2.20;;;;;27.20;96916.00;;;;8327818;28;20787;-71
2023/08/10 09:46:19;;;;;;;2.42;2.22;;;;;27.30;96908.00;;;;8328093;28;20279;-71
2023/08/10 09:50:23;;;;;;;2.35;1.83;;;;;27.40;96912.00;;;;8336576;28;20232;-71
2023/08/10 09:54:29;;;;;;;2.10;1.65;;;;;28.10;96908.00;;;;8318744;28;20204;-71
2023/08/10 09:58:36;;;;;;;1.80;1.70;;;;;28.00;96906.00;;;;8329054;28;20252;-71
2023/08/10 10:02:40;;;;;;;1.30;1.30;;;;;28.20;96911.00;;;;8320580;28;20607;-71
2023/08/10 10:06:44;;;;;;;2.35;1.50;;;;;28.70;96913.00;;;;8326803;28;21061;-71
2023/08/10 10:10:49;;;;;;;3.05;1.75;;;;;28.70;96910.00;;;;8330475;28;20197;-71
2023/08/10 10:14:54;;;;;;;1.45;1.35;;;;;28.50;96912.00;;;;8333771;28;20644;-71
2023/08/10 10:18:58;;;;;;;1.42;1.33;;;;;29.00;96911.00;;;;8333583;28;20232;-71
2023/08/10 10:23:02;;;;;;;2.47;1.40;;;;;29.40;96906.00;;;;8311054;28;21111;-71
2023/08/10 10:27:11;;;;;;;3.13;1.30;;;;;30.10;96911.00;;;;8333203;28;20255;-70
2023/08/10 10:31:17;;;;;;;1.50;1.40;;;;;30.20;96904.00;;;;8336039;28;20282;-70
2023/08/10 10:35:24;;;;;;;1.92;1.60;;;;;30.10;96900.00;;;;8334578;28;20284;-70
2023/08/10 10:39:27;;;;;;;1.90;1.80;;;;;29.80;96894.00;;;;8323753;28;20645;-70
2023/08/10 10:43:32;;;;;;;1.48;1.38;;;;;29.60;96900.00;;;;8336339;28;20809;-70
2023/08/10 10:47:37;;;;;;;1.58;1.48;;;;;29.90;96896.00;;;;8328086;28;20225;-70
2023/08/10 10:52:02;;;;;;;2.55;1.50;;;;;29.70;96889.00;;;;8329926;28;20292;-69
2023/08/10 10:56:07;;;;;;;1.48;1.48;;;;;30.00;96890.00;;;;8316041;28;20220;-70
2023/08/10 11:00:13;;;;;;;1.58;1.45;;;;;30.50;96891.00;;;;8323707;28;20208;-70
2023/08/10 11:04:17;;;;;;;3.47;1.50;;;;;30.90;96889.00;;;;8329355;28;20323;-70
2023/08/10 11:08:20;;;;;;;1.40;1.40;;;;;31.20;96886.00;;;;8323594;28;20221;-70
2023/08/10 11:12:23;;;;;;;4.07;1.40;;;;;31.40;96882.00;;;;8334137;28;20293;-70
2023/08/10 11:16:36;;;;;;;1.65;1.48;;;;;31.40;96879.00;;;;8316837;28;20201;-69
2023/08/10 11:20:50;;;;;;;1.40;1.35;;;;;31.50;96872.00;;;;8328766;28;20197;-69
2023/08/10 11:24:54;;;;;;;1.33;1.23;;;;;31.80;96879.00;;;;8317860;28;20209;-69
2023/08/10 11:29:08;;;;;;;1.48;1.40;;;;;31.90;96872.00;;;;8328635;28;20233;-69
2023/08/10 11:33:14;;;;;;;1.52;1.50;;;;;31.80;96876.00;;;;8321464;28;20212;-69
2023/08/10 11:37:29;;;;;;;1.40;1.30;;;;;31.30;96871.00;;;;8313338;28;20204;-70
2023/08/10 11:41:41;;;;;;;1.77;1.67;;;;;31.00;96867.00;;;;8328310;28;20209;-69
2023/08/10 11:45:44;;;;;;;1.30;1.30;;;;;31.50;96862.00;;;;8320809;28;20641;-69
2023/08/10 11:49:58;;;;;;;1.50;1.50;;;;;31.80;96859.00;;;;8321143;28;20276;-69
2023/08/10 11:54:11;;;;;;;1.70;1.48;;;;;31.70;96854.00;;;;8320262;28;20205;-69
2023/08/10 11:58:17;;;;;;;1.55;1.48;;;;;32.20;96852.00;;;;8319884;28;20933;-69
2023/08/10 12:02:20;;;;;;;4.40;1.85;;;;;32.20;96841.00;;;;8327597;28;20243;-69
2023/08/10 12:06:26;;;;;;;1.75;1.52;;;;;32.30;96840.00;;;;8325281;28;20882;-69
2023/08/10 12:10:36;;;;;;;1.65;1.52;;;;;31.90;96834.00;;;;8329208;28;20208;-69
2023/08/10 12:14:42;;;;;;;2.58;1.63;;;;;31.80;96841.00;;;;8319046;28;20280;-69
2023/08/10 12:18:47;;;;;;;3.17;1.73;;;;;31.30;96847.00;;;;8326956;28;20193;-69
2023/08/10 12:22:54;;;;;;;2.70;1.20;;;;;30.50;96844.00;;;;8330995;28;20682;-68
2023/08/10 12:26:57;;;;;;;1.60;1.50;;;;;29.90;96843.00;;;;8323288;28;20229;-68
2023/08/10 12:31:05;;;;;;;1.88;1.67;;;;;29.40;96841.00;;;;8331337;28;20205;-68
2023/08/10 12:35:09;;;;;;;1.60;1.50;;;;;29.10;96838.00;;;;8327425;28;20240;-68
2023/08/10 12:39:15;;;;;;;1.73;1.60;;;;;28.90;96834.00;;;;8331563;28;20290;-68
2023/08/10 12:43:22;;;;;;;1.73;1.50;;;;;28.70;96831.00;;;;8340032;28;20203;-68
2023/08/10 12:47:25;;;;;;;1.70;1.60;;;;;28.70;96835.00;;;;8334139;28;20268;-68
2023/08/10 12:51:31;;;;;;;2.55;1.50;;;;;28.90;96826.00;;;;8332895;28;20331;-68
2023/08/10 12:55:35;;;;;;;2.03;1.92;;;;;29.00;96819.00;;;;8313504;28;20221;-68
2023/08/10 12:59:38;;;;;;;1.50;1.40;;;;;29.00;96822.00;;;;8338342;28;20652;-68
2023/08/10 13:03:41;;;;;;;1.85;1.75;;;;;28.90;96813.00;;;;8334133;28;20315;-68
2023/08/10 13:07:47;;;;;;;1.88;1.70;;;;;28.70;96816.00;;;;8334478;28;21113;-68
2023/08/10 13:11:52;;;;;;;1.52;1.50;;;;;28.60;96819.00;;;;8341448;28;20197;-68
2023/08/10 13:15:55;;;;;;;1.60;1.50;;;;;28.50;96820.00;;;;8330353;28;20288;-68
2023/08/10 13:19:59;;;;;;;7.72;2.10;;;;;28.20;96818.00;;;;8335917;28;20196;-68
2023/08/10 13:24:04;;;;;;;3.05;1.88;;;;;28.20;96816.00;;;;8332864;28;20207;-68
2023/08/10 13:28:11;;;;;;;3.03;1.67;;;;;28.30;96817.00;;;;8327815;28;20311;-68
2023/08/10 13:32:17;;;;;;;2.08;1.70;;;;;28.40;96820.00;;;;8328401;28;20208;-68
2023/08/10 13:36:23;;;;;;;1.70;1.60;;;;;28.80;96823.00;;;;8329134;28;20198;-68
2023/08/10 13:40:28;;;;;;;1.52;1.52;;;;;29.20;96823.00;;;;8322530;28;20614;-68
2023/08/10 13:44:35;;;;;;;1.33;1.33;;;;;29.60;96820.00;;;;8324374;28;20895;-68
2023/08/10 13:48:41;;;;;;;2.38;1.67;;;;;30.30;96827.00;;;;8338438;28;20319;-68
2023/08/10 13:52:44;;;;;;;2.00;1.85;;;;;31.10;96817.00;;;;8333264;28;20292;-68
2023/08/10 13:57:04;;;;;;;2.03;1.80;;;;;31.10;96819.00;;;;8320067;28;20204;-68
2023/08/10 14:01:11;;;;;;;2.90;1.80;;;;;30.00;96813.00;;;;8327221;28;20213;-67
2023/08/10 14:05:15;;;;;;;1.92;1.55;;;;;29.90;96809.00;;;;8335834;28;20813;-68
2023/08/10 14:09:20;;;;;;;1.50;1.50;;;;;29.60;96819.00;;;;8336245;28;20221;-68
2023/08/10 14:13:23;;;;;;;1.67;1.58;;;;;29.00;96818.00;;;;8334811;28;20184;-68
2023/08/10 14:17:28;;;;;;;1.73;1.63;;;;;28.40;96813.00;;;;8325089;28;20247;-67
2023/08/10 14:21:31;;;;;;;2.47;1.80;;;;;27.90;96820.00;;;;8332026;28;20201;-68
2023/08/10 14:25:34;;;;;;;2.17;1.98;;;;;28.10;96817.00;;;;8320936;28;20334;-68
2023/08/10 14:29:41;;;;;;;2.50;1.65;;;;;29.20;96812.00;;;;8320058;28;20319;-68
2023/08/10 14:33:50;;;;;;;1.80;1.70;;;;;29.40;96808.00;;;;8323411;28;20200;-68
2023/08/10 14:37:55;;;;;;;1.90;1.77;;;;;29.10;96811.00;;;;8332437;28;20262;-67
2023/08/10 14:41:58;;;;;;;1.90;1.70;;;;;29.80;96810.00;;;;8323322;28;20208;-67
2023/08/10 14:46:01;;;;;;;2.00;1.90;;;;;30.40;96810.00;;;;8329267;28;20575;-76
2023/08/10 14:50:09;;;;;;;1.58;1.58;;;;;30.90;96809.00;;;;8329197;28;20229;-75
2023/08/10 14:54:21;;;;;;;1.55;1.55;;;;;31.20;96812.00;;;;8313706;28;20212;-76
2023/08/10 14:58:24;;;;;;;1.85;1.75;;;;;31.40;96812.00;;;;8320644;28;20232;-72
2023/08/10 15:02:28;;;;;;;1.85;1.75;;;;;31.50;96807.00;;;;8328413;28;20250;-72
2023/08/10 15:06:37;;;;;;;1.85;1.75;;;;;31.40;96807.00;;;;8332725;28;20201;-72
2023/08/10 15:10:41;;;;;;;1.67;1.58;;;;;31.80;96806.00;;;;8321456;28;20784;-72
2023/08/10 15:14:44;;;;;;;2.40;1.60;;;;;31.70;96816.00;;;;8331882;28;20225;-73
2023/08/10 15:19:05;;;;;;;1.80;1.70;;;;;31.70;96815.00;;;;8333378;28;20197;-75
2023/08/10 15:23:10;;;;;;;2.15;1.95;;;;;31.40;96814.00;;;;8320287;28;20211;-74
2023/08/10 15:27:18;;;;;;;1.90;1.80;;;;;31.30;96815.00;;;;8306461;28;20196;-73
2023/08/10 15:31:22;;;;;;;2.17;1.83;;;;;30.80;96818.00;;;;8323816;28;20340;-72
2023/08/10 15:35:25;;;;;;;1.92;1.80;;;;;30.40;96822.00;;;;8322114;28;20403;-76
2023/08/10 15:39:32;;;;;;;1.63;1.52;;;;;29.90;96818.00;;;;8317605;28;20289;-74
2023/08/10 15:43:36;;;;;;;1.83;1.67;;;;;29.10;96823.00;;;;8326812;28;20699;-72
2023/08/10 15:47:40;;;;;;;2.75;1.60;;;;;28.50;96815.00;;;;8324761;28;20730;-73
2023/08/10 15:51:44;;;;;;;1.60;1.50;;;;;27.90;96824.00;;;;8330284;28;20208;-73
2023/08/10 15:55:59;;;;;;;1.90;1.80;;;;;27.80;96826.00;;;;8325864;28;20216;-74
2023/08/10 16:00:04;;;;;;;2.08;1.85;;;;;28.10;96829.00;;;;8320796;28;20292;-73
2023/08/10 16:04:10;;;;;;;2.42;2.00;;;;;27.90;96829.00;;;;8336510;28;20232;-72
2023/08/10 16:08:13;;;;;;;1.70;1.60;;;;;28.00;96829.00;;;;8303014;28;20225;-70
2023/08/10 16:12:21;;;;;;;2.00;1.90;;;;;28.10;96824.00;;;;8312207;28;20197;-74
2023/08/10 16:16:26;;;;;;;3.42;1.85;;;;;28.30;96825.00;;;;8338406;28;20185;-73
2023/08/10 16:20:29;;;;;;;2.03;1.92;;;;;28.80;96817.00;;;;8329123;28;20203;-73
2023/08/10 16:24:33;;;;;;;1.98;1.88;;;;;29.40;96816.00;;;;8324316;28;20205;-74
2023/08/10 16:28:40;;;;;;;1.73;1.65;;;;;30.00;96822.00;;;;8318410;28;20256;-73
2023/08/10 16:32:43;;;;;;;3.22;1.63;;;;;30.20;96821.00;;;;8339631;28;20232;-73
2023/08/10 16:36:48;;;;;;;2.42;1.95;;;;;30.40;96829.00;;;;8332175;28;20864;-74
2023/08/10 16:40:51;;;;;;;2.88;1.83;;;;;30.80;96832.00;;;;8341688;28;20291;-74
2023/08/10 16:45:01;;;;;;;2.40;2.10;;;;;31.20;96834.00;;;;8312959;28;20491;-74
2023/08/10 16:49:05;;;;;;;1.80;1.70;;;;;31.60;96834.00;;;;8331644;28;20233;-72
2023/08/10 16:53:10;;;;;;;1.85;1.73;;;;;31.90;96831.00;;;;8338946;28;20205;-74
2023/08/10 16:57:16;;;;;;;3.25;2.42;;;;;32.10;96832.00;;;;8301607;28;20236;-73
2023/08/10 17:01:21;;;;;;;2.92;2.65;;;;;32.20;96836.00;;;;8343580;28;20287;-74
2023/08/10 17:05:25;;;;;;;2.30;2.20;;;;;32.40;96836.00;;;;8336021;28;20259;-75
2023/08/10 17:09:31;;;;;;;3.15;2.78;;;;;32.50;96841.00;;;;8341204;28;20260;-73
2023/08/10 17:13:35;;;;;;;2.45;2.08;;;;;32.50;96836.00;;;;8328397;28;20291;-72
2023/08/10 17:17:40;;;;;;;3.03;2.70;;;;;32.60;96840.00;;;;8336730;28;20197;-73
2023/08/10 17:21:47;;;;;;;3.20;2.95;;;;;32.70;96841.00;;;;8335411;28;20655;-74
2023/08/10 17:25:52;;;;;;;3.15;2.20;;;;;32.70;96843.00;;;;8331692;28;20196;-72
2023/08/10 17:29:57;;;;;;;1.90;1.80;;;;;32.60;96837.00;;;;8329734;28;20225;-74
2023/08/10 17:34:01;;;;;;;2.13;1.92;;;;;32.30;96835.00;;;;8323328;28;20209;-74
2023/08/10 17:38:06;;;;;;;2.65;2.10;;;;;32.10;96830.00;;;;8332056;28;20237;-73
2023/08/10 17:42:10;;;;;;;2.50;2.30;;;;;31.70;96830.00;;;;8336295;28;20293;-71
2023/08/10 17:46:16;;;;;;;3.30;2.97;;;;;31.10;96839.00;;;;8331497;28;20212;-69
2023/08/10 17:50:31;;;;;;;3.45;3.15;;;;;30.10;96834.00;;;;8345519;28;20228;-69
2023/08/10 17:54:38;;;;;;;6.43;5.00;;;;;29.00;96833.00;;;;8313811;28;20597;-69
2023/08/10 17:58:42;;;;;;;3.10;2.50;;;;;27.90;96822.00;;;;8338832;28;20196;-68
2023/08/10 18:02:48;;;;;;;1.92;1.80;;;;;27.00;96818.00;;;;8330569;28;20236;-69
2023/08/10 18:06:53;;;;;;;1.80;1.70;;;;;25.90;96817.00;;;;8326059;28;20206;-69
2023/08/10 18:10:57;;;;;;;2.08;1.90;;;;;24.80;96816.00;;;;8340827;28;20837;-68
2023/08/10 18:15:01;;;;;;;2.75;2.00;;;;;23.70;96828.00;;;;8318022;28;20590;-69
2023/08/10 18:19:07;;;;;;;1.95;1.83;;;;;22.80;96830.00;;;;8322861;28;20321;-68
2023/08/10 18:23:12;;;;;;;3.60;2.00;;;;;22.00;96829.00;;;;8331513;28;20924;-69
2023/08/10 18:27:16;;;;;;;2.53;2.00;;;;;21.30;96827.00;;;;8328865;28;20276;-68
2023/08/10 18:31:19;;;;;;;3.42;2.25;;;;;20.70;96825.00;;;;8313415;28;20351;-69
2023/08/10 18:35:22;;;;;;;2.45;2.25;;;;;20.20;96831.00;;;;8325283;28;20600;-71
2023/08/10 18:39:27;;;;;;;4.75;2.55;;;;;19.80;96829.00;;;;8328282;28;20336;-71
2023/08/10 18:43:31;;;;;;;2.25;2.00;;;;;19.50;96823.00;;;;8321177;28;20293;-71
2023/08/10 18:47:36;;;;;;;3.10;2.50;;;;;19.20;96828.00;;;;8332046;28;20198;-71
2023/08/10 18:51:41;;;;;;;3.40;2.30;;;;;18.90;96832.00;;;;8330365;28;20220;-73
2023/08/10 18:55:54;;;;;;;3.67;2.33;;;;;18.60;96836.00;;;;8335162;28;20532;-71
2023/08/10 18:59:58;;;;;;;3.22;2.70;;;;;18.40;96833.00;;;;8322854;28;20239;-67
2023/08/10 19:04:02;;;;;;;2.65;2.45;;;;;18.10;96846.00;;;;8319373;28;20788;-67
2023/08/10 19:08:06;;;;;;;2.67;2.40;;;;;17.80;96841.00;;;;8321304;28;20255;-67
2023/08/10 19:12:12;;;;;;;3.45;2.53;;;;;17.60;96840.00;;;;8317568;28;20224;-67
2023/08/10 19:16:16;;;;;;;2.97;2.65;;;;;17.50;96846.00;;;;8324607;28;20781;-67
2023/08/10 19:20:21;;;;;;;2.97;2.30;;;;;17.20;96849.00;;;;8323345;28;20230;-66
2023/08/10 19:24:24;;;;;;;2.63;2.42;;;;;17.10;96844.00;;;;8331615;28;20197;-66
2023/08/10 19:28:29;;;;;;;3.42;2.67;;;;;17.00;96848.00;;;;8326957;28;20418;-67
2023/08/10 19:32:33;;;;;;;3.17;2.45;;;;;16.80;96852.00;;;;8315017;28;20226;-67
2023/08/10 19:36:37;;;;;;;2.72;2.53;;;;;16.70;96855.00;;;;8334519;28;20225;-67
2023/08/10 19:40:40;;;;;;;3.80;2.50;;;;;16.60;96858.00;;;;8321523;28;20205;-67
2023/08/10 19:44:44;;;;;;;2.42;2.33;;;;;16.50;96859.00;;;;8317297;28;20312;-67
2023/08/10 19:48:48;;;;;;;5.20;2.70;;;;;16.30;96862.00;;;;8331349;28;20201;-67
2023/08/10 19:52:52;;;;;;;3.22;2.70;;;;;16.20;96861.00;;;;8319238;28;20224;-66
2023/08/10 19:56:58;;;;;;;3.10;2.80;;;;;16.00;96860.00;;;;8324417;28;20205;-67
2023/08/10 20:01:04;;;;;;;3.13;2.92;;;;;15.80;96867.00;;;;8333652;28;20658;-67
2023/08/10 20:05:08;;;;;;;4.88;2.90;;;;;15.70;96868.00;;;;8324762;28;20217;-66
2023/08/10 20:09:13;;;;;;;4.63;2.85;;;;;15.70;96868.00;;;;8328902;28;20205;-67
2023/08/10 20:13:16;;;;;;;3.00;2.80;;;;;15.60;96876.00;;;;8319851;28;20217;-67
2023/08/10 20:17:24;;;;;;;6.55;2.83;;;;;15.50;96871.00;;;;8326521;28;20229;-67
2023/08/10 20:21:27;;;;;;;8.13;3.13;;;;;15.40;96876.00;;;;8321742;28;20285;-67